sensor_id;sensor_type;location;lat;lon;timestamp;P1;durP1;ratioP1;P2;durP2;ratioP2
1366;SDS011;16877;48.810;9.282;2023-09-07T00:01:17;3.70;;;2.70;;
1366;SDS011;16877;48.810;9.282;2023-09-07T00:03:45;3.80;;;2.60;;
1366;SDS011;16877;48.810;9.282;2023-09-07T00:06:12;3.70;;;3.17;;
1366;SDS011;16877;48.810;9.282;2023-09-07T00:08:40;3.43;;;3.13;;
1366;SDS011;16877;48.810;9.282;2023-09-07T00:11:08;3.43;;;2.87;;
1366;SDS011;16877;48.810;9.282;2023-09-07T00:13:35;4.67;;;3.50;;
1366;SDS011;16877;48.810;9.282;2023-09-07T00:16:19;6.00;;;2.77;;
1366;SDS011;16877;48.810;9.282;2023-09-07T00:18:47;6.03;;;2.90;;
1366;SDS011;16877;48.810;9.282;2023-09-07T00:21:14;5.60;;;3.30;;
1366;SDS011;16877;48.810;9.282;2023-09-07T00:23:46;3.90;;;3.40;;
1366;SDS011;16877;48.810;9.282;2023-09-07T00:26:14;4.37;;;3.23;;
1366;SDS011;16877;48.810;9.282;2023-09-07T00:28:41;4.60;;;3.57;;
1366;SDS011;16877;48.810;9.282;2023-09-07T00:31:08;4.60;;;3.17;;
1366;SDS011;16877;48.810;9.282;2023-09-07T00:33:37;4.23;;;3.00;;
1366;SDS011;16877;48.810;9.282;2023-09-07T00:36:05;4.00;;;2.90;;
1366;SDS011;16877;48.810;9.282;2023-09-07T00:38:32;3.80;;;2.90;;
1366;SDS011;16877;48.810;9.282;2023-09-07T00:41:01;3.80;;;3.03;;
1366;SDS011;16877;48.810;9.282;2023-09-07T00:43:28;3.33;;;2.60;;
1366;SDS011;16877;48.810;9.282;2023-09-07T00:45:55;4.17;;;2.60;;
1366;SDS011;16877;48.810;9.282;2023-09-07T00:48:23;3.60;;;2.73;;
1366;SDS011;16877;48.810;9.282;2023-09-07T00:50:52;4.23;;;2.90;;
1366;SDS011;16877;48.810;9.282;2023-09-07T00:53:20;4.10;;;3.20;;
1366;SDS011;16877;48.810;9.282;2023-09-07T00:55:50;4.47;;;2.73;;
1366;SDS011;16877;48.810;9.282;2023-09-07T00:58:18;4.40;;;3.10;;
1366;SDS011;16877;48.810;9.282;2023-09-07T01:00:47;4.10;;;2.20;;
1366;SDS011;16877;48.810;9.282;2023-09-07T01:03:16;4.87;;;3.07;;
1366;SDS011;16877;48.810;9.282;2023-09-07T01:05:49;3.73;;;2.63;;
1366;SDS011;16877;48.810;9.282;2023-09-07T01:08:23;3.20;;;2.90;;
1366;SDS011;16877;48.810;9.282;2023-09-07T01:10:52;4.00;;;2.70;;
1366;SDS011;16877;48.810;9.282;2023-09-07T01:13:19;3.73;;;2.93;;
1366;SDS011;16877;48.810;9.282;2023-09-07T01:15:48;3.27;;;2.57;;
1366;SDS011;16877;48.810;9.282;2023-09-07T01:18:17;3.37;;;2.60;;
1366;SDS011;16877;48.810;9.282;2023-09-07T01:20:44;4.20;;;2.80;;
1366;SDS011;16877;48.810;9.282;2023-09-07T01:23:16;4.40;;;2.60;;
1366;SDS011;16877;48.810;9.282;2023-09-07T01:25:44;4.77;;;2.83;;
1366;SDS011;16877;48.810;9.282;2023-09-07T01:28:12;4.07;;;2.90;;
1366;SDS011;16877;48.810;9.282;2023-09-07T01:30:40;2.97;;;2.53;;
1366;SDS011;16877;48.810;9.282;2023-09-07T01:33:08;5.00;;;2.93;;
1366;SDS011;16877;48.810;9.282;2023-09-07T01:35:35;3.40;;;2.43;;
1366;SDS011;16877;48.810;9.282;2023-09-07T01:38:04;5.47;;;2.70;;
1366;SDS011;16877;48.810;9.282;2023-09-07T01:40:35;3.83;;;3.17;;
1366;SDS011;16877;48.810;9.282;2023-09-07T01:43:02;4.53;;;2.90;;
1366;SDS011;16877;48.810;9.282;2023-09-07T01:45:30;4.67;;;2.70;;
1366;SDS011;16877;48.810;9.282;2023-09-07T01:47:57;3.87;;;2.87;;
1366;SDS011;16877;48.810;9.282;2023-09-07T01:50:25;3.17;;;2.70;;
1366;SDS011;16877;48.810;9.282;2023-09-07T01:52:53;3.50;;;2.80;;
1366;SDS011;16877;48.810;9.282;2023-09-07T01:55:20;3.87;;;2.80;;
1366;SDS011;16877;48.810;9.282;2023-09-07T01:57:50;4.47;;;2.83;;
1366;SDS011;16877;48.810;9.282;2023-09-07T02:00:17;3.77;;;2.83;;
1366;SDS011;16877;48.810;9.282;2023-09-07T02:02:44;4.77;;;3.00;;
1366;SDS011;16877;48.810;9.282;2023-09-07T02:05:12;4.27;;;3.50;;
1366;SDS011;16877;48.810;9.282;2023-09-07T02:07:40;2.77;;;2.07;;
1366;SDS011;16877;48.810;9.282;2023-09-07T02:10:07;3.43;;;2.60;;
1366;SDS011;16877;48.810;9.282;2023-09-07T02:12:36;3.47;;;2.53;;
1366;SDS011;16877;48.810;9.282;2023-09-07T02:15:06;3.87;;;3.03;;
1366;SDS011;16877;48.810;9.282;2023-09-07T02:17:33;5.60;;;2.70;;
1366;SDS011;16877;48.810;9.282;2023-09-07T02:20:01;3.17;;;2.73;;
1366;SDS011;16877;48.810;9.282;2023-09-07T02:22:33;2.97;;;2.37;;
1366;SDS011;16877;48.810;9.282;2023-09-07T02:25:01;3.60;;;3.10;;
1366;SDS011;16877;48.810;9.282;2023-09-07T02:27:30;3.70;;;2.90;;
1366;SDS011;16877;48.810;9.282;2023-09-07T02:29:58;3.77;;;2.90;;
1366;SDS011;16877;48.810;9.282;2023-09-07T02:32:28;3.40;;;2.67;;
1366;SDS011;16877;48.810;9.282;2023-09-07T02:34:56;3.70;;;3.30;;
1366;SDS011;16877;48.810;9.282;2023-09-07T02:37:23;3.03;;;2.40;;
1366;SDS011;16877;48.810;9.282;2023-09-07T02:39:53;3.60;;;3.07;;
1366;SDS011;16877;48.810;9.282;2023-09-07T02:42:21;4.60;;;2.67;;
1366;SDS011;16877;48.810;9.282;2023-09-07T02:44:49;4.63;;;3.00;;
1366;SDS011;16877;48.810;9.282;2023-09-07T02:47:16;3.83;;;3.07;;
1366;SDS011;16877;48.810;9.282;2023-09-07T02:49:45;3.70;;;2.80;;
1366;SDS011;16877;48.810;9.282;2023-09-07T02:52:13;3.33;;;2.27;;
1366;SDS011;16877;48.810;9.282;2023-09-07T02:54:41;3.20;;;2.60;;
1366;SDS011;16877;48.810;9.282;2023-09-07T02:57:08;3.30;;;2.90;;
1366;SDS011;16877;48.810;9.282;2023-09-07T02:59:35;5.40;;;2.83;;
1366;SDS011;16877;48.810;9.282;2023-09-07T03:02:03;3.57;;;2.80;;
1366;SDS011;16877;48.810;9.282;2023-09-07T03:04:31;3.83;;;2.87;;
1366;SDS011;16877;48.810;9.282;2023-09-07T03:07:01;3.37;;;2.90;;
1366;SDS011;16877;48.810;9.282;2023-09-07T03:09:29;3.60;;;3.00;;
1366;SDS011;16877;48.810;9.282;2023-09-07T03:11:56;3.30;;;2.27;;
1366;SDS011;16877;48.810;9.282;2023-09-07T03:14:24;4.50;;;3.00;;
1366;SDS011;16877;48.810;9.282;2023-09-07T03:16:51;4.00;;;2.33;;
1366;SDS011;16877;48.810;9.282;2023-09-07T03:19:19;3.10;;;2.77;;
1366;SDS011;16877;48.810;9.282;2023-09-07T03:21:47;4.90;;;3.53;;
1366;SDS011;16877;48.810;9.282;2023-09-07T03:24:16;5.30;;;3.17;;
1366;SDS011;16877;48.810;9.282;2023-09-07T03:26:45;4.90;;;2.90;;
1366;SDS011;16877;48.810;9.282;2023-09-07T03:29:13;4.40;;;3.17;;
1366;SDS011;16877;48.810;9.282;2023-09-07T03:31:40;4.07;;;3.10;;
1366;SDS011;16877;48.810;9.282;2023-09-07T03:34:07;3.20;;;2.50;;
1366;SDS011;16877;48.810;9.282;2023-09-07T03:36:35;3.43;;;2.93;;
1366;SDS011;16877;48.810;9.282;2023-09-07T03:39:02;4.53;;;3.17;;
1366;SDS011;16877;48.810;9.282;2023-09-07T03:41:34;4.20;;;3.00;;
1366;SDS011;16877;48.810;9.282;2023-09-07T03:44:01;3.13;;;2.50;;
1366;SDS011;16877;48.810;9.282;2023-09-07T03:46:30;4.30;;;3.03;;
1366;SDS011;16877;48.810;9.282;2023-09-07T03:48:58;3.87;;;2.80;;
1366;SDS011;16877;48.810;9.282;2023-09-07T03:51:25;3.50;;;3.20;;
1366;SDS011;16877;48.810;9.282;2023-09-07T03:53:53;3.00;;;2.33;;
1366;SDS011;16877;48.810;9.282;2023-09-07T03:56:20;3.73;;;2.80;;
1366;SDS011;16877;48.810;9.282;2023-09-07T03:58:50;3.07;;;2.63;;
1366;SDS011;16877;48.810;9.282;2023-09-07T04:01:17;3.43;;;2.67;;
1366;SDS011;16877;48.810;9.282;2023-09-07T04:03:45;3.20;;;2.83;;
1366;SDS011;16877;48.810;9.282;2023-09-07T04:06:13;3.30;;;2.73;;
1366;SDS011;16877;48.810;9.282;2023-09-07T04:08:40;2.83;;;2.50;;
1366;SDS011;16877;48.810;9.282;2023-09-07T04:11:08;3.57;;;3.10;;
1366;SDS011;16877;48.810;9.282;2023-09-07T04:13:36;3.27;;;2.73;;
1366;SDS011;16877;48.810;9.282;2023-09-07T04:16:05;4.00;;;3.10;;
1366;SDS011;16877;48.810;9.282;2023-09-07T04:18:34;5.00;;;3.57;;
1366;SDS011;16877;48.810;9.282;2023-09-07T04:21:04;3.43;;;2.67;;
1366;SDS011;16877;48.810;9.282;2023-09-07T04:23:32;4.80;;;3.20;;
1366;SDS011;16877;48.810;9.282;2023-09-07T04:26:03;3.17;;;2.67;;
1366;SDS011;16877;48.810;9.282;2023-09-07T04:28:33;3.67;;;3.03;;
1366;SDS011;16877;48.810;9.282;2023-09-07T04:31:00;4.27;;;3.20;;
1366;SDS011;16877;48.810;9.282;2023-09-07T04:33:30;4.40;;;3.60;;
1366;SDS011;16877;48.810;9.282;2023-09-07T04:36:08;3.20;;;2.90;;
1366;SDS011;16877;48.810;9.282;2023-09-07T04:38:48;4.13;;;3.03;;
1366;SDS011;16877;48.810;9.282;2023-09-07T04:41:24;3.27;;;2.63;;
1366;SDS011;16877;48.810;9.282;2023-09-07T04:43:56;3.23;;;2.70;;
1366;SDS011;16877;48.810;9.282;2023-09-07T04:46:23;4.30;;;3.10;;
1366;SDS011;16877;48.810;9.282;2023-09-07T04:49:06;5.20;;;2.80;;
1366;SDS011;16877;48.810;9.282;2023-09-07T04:51:33;3.70;;;2.90;;
1366;SDS011;16877;48.810;9.282;2023-09-07T04:54:01;3.30;;;3.00;;
1366;SDS011;16877;48.810;9.282;2023-09-07T04:56:32;3.30;;;2.83;;
1366;SDS011;16877;48.810;9.282;2023-09-07T04:59:01;4.17;;;3.30;;
1366;SDS011;16877;48.810;9.282;2023-09-07T05:01:43;4.90;;;3.20;;
1366;SDS011;16877;48.810;9.282;2023-09-07T05:04:15;3.43;;;2.93;;
1366;SDS011;16877;48.810;9.282;2023-09-07T05:06:42;4.33;;;3.23;;
1366;SDS011;16877;48.810;9.282;2023-09-07T05:09:09;7.13;;;3.50;;
1366;SDS011;16877;48.810;9.282;2023-09-07T05:11:36;6.33;;;3.60;;
1366;SDS011;16877;48.810;9.282;2023-09-07T05:14:20;3.97;;;3.20;;
1366;SDS011;16877;48.810;9.282;2023-09-07T05:16:47;3.70;;;2.97;;
1366;SDS011;16877;48.810;9.282;2023-09-07T05:19:19;3.30;;;3.00;;
1366;SDS011;16877;48.810;9.282;2023-09-07T05:21:52;4.20;;;3.40;;
1366;SDS011;16877;48.810;9.282;2023-09-07T05:24:37;3.80;;;3.10;;
1366;SDS011;16877;48.810;9.282;2023-09-07T05:27:06;4.53;;;3.30;;
1366;SDS011;16877;48.810;9.282;2023-09-07T05:29:33;3.73;;;3.33;;
1366;SDS011;16877;48.810;9.282;2023-09-07T05:32:01;3.90;;;3.50;;
1366;SDS011;16877;48.810;9.282;2023-09-07T05:34:32;3.50;;;2.97;;
1366;SDS011;16877;48.810;9.282;2023-09-07T05:37:14;5.83;;;3.60;;
1366;SDS011;16877;48.810;9.282;2023-09-07T05:39:42;5.67;;;3.60;;
1366;SDS011;16877;48.810;9.282;2023-09-07T05:42:09;4.73;;;3.03;;
1366;SDS011;16877;48.810;9.282;2023-09-07T05:44:37;5.23;;;3.73;;
1366;SDS011;16877;48.810;9.282;2023-09-07T05:47:05;4.60;;;3.53;;
1366;SDS011;16877;48.810;9.282;2023-09-07T05:49:35;3.83;;;3.27;;
1366;SDS011;16877;48.810;9.282;2023-09-07T05:52:02;4.27;;;3.67;;
1366;SDS011;16877;48.810;9.282;2023-09-07T05:54:30;5.00;;;3.47;;
1366;SDS011;16877;48.810;9.282;2023-09-07T05:56:57;4.10;;;2.80;;
1366;SDS011;16877;48.810;9.282;2023-09-07T05:59:24;3.87;;;3.33;;
1366;SDS011;16877;48.810;9.282;2023-09-07T06:01:52;4.80;;;3.80;;
1366;SDS011;16877;48.810;9.282;2023-09-07T06:04:36;4.40;;;3.07;;
1366;SDS011;16877;48.810;9.282;2023-09-07T06:07:03;4.70;;;3.30;;
1366;SDS011;16877;48.810;9.282;2023-09-07T06:09:31;4.40;;;3.40;;
1366;SDS011;16877;48.810;9.282;2023-09-07T06:11:58;4.07;;;3.60;;
1366;SDS011;16877;48.810;9.282;2023-09-07T06:14:27;4.93;;;3.90;;
1366;SDS011;16877;48.810;9.282;2023-09-07T06:16:55;4.57;;;3.80;;
1366;SDS011;16877;48.810;9.282;2023-09-07T06:19:22;4.10;;;3.70;;
1366;SDS011;16877;48.810;9.282;2023-09-07T06:21:51;6.43;;;4.23;;
1366;SDS011;16877;48.810;9.282;2023-09-07T06:24:34;5.90;;;3.97;;
1366;SDS011;16877;48.810;9.282;2023-09-07T06:27:02;5.57;;;4.00;;
1366;SDS011;16877;48.810;9.282;2023-09-07T06:29:29;4.30;;;3.90;;
1366;SDS011;16877;48.810;9.282;2023-09-07T06:31:58;4.00;;;3.60;;
1366;SDS011;16877;48.810;9.282;2023-09-07T06:34:25;5.60;;;4.03;;
1366;SDS011;16877;48.810;9.282;2023-09-07T06:36:55;4.33;;;3.70;;
1366;SDS011;16877;48.810;9.282;2023-09-07T06:39:26;7.47;;;4.50;;
1366;SDS011;16877;48.810;9.282;2023-09-07T06:41:54;4.03;;;3.50;;
1366;SDS011;16877;48.810;9.282;2023-09-07T06:44:21;5.93;;;4.00;;
1366;SDS011;16877;48.810;9.282;2023-09-07T06:46:49;4.87;;;3.47;;
1366;SDS011;16877;48.810;9.282;2023-09-07T06:49:17;8.37;;;4.50;;
1366;SDS011;16877;48.810;9.282;2023-09-07T06:51:44;7.70;;;4.10;;
1366;SDS011;16877;48.810;9.282;2023-09-07T06:54:13;7.33;;;3.07;;
1366;SDS011;16877;48.810;9.282;2023-09-07T06:56:41;3.80;;;3.10;;
1366;SDS011;16877;48.810;9.282;2023-09-07T06:59:09;4.60;;;3.87;;
1366;SDS011;16877;48.810;9.282;2023-09-07T07:01:38;5.10;;;3.67;;
1366;SDS011;16877;48.810;9.282;2023-09-07T07:04:07;11.10;;;3.63;;
1366;SDS011;16877;48.810;9.282;2023-09-07T07:06:34;4.33;;;3.53;;
1366;SDS011;16877;48.810;9.282;2023-09-07T07:09:02;6.23;;;3.83;;
1366;SDS011;16877;48.810;9.282;2023-09-07T07:11:31;7.47;;;4.10;;
1366;SDS011;16877;48.810;9.282;2023-09-07T07:14:01;5.03;;;3.60;;
1366;SDS011;16877;48.810;9.282;2023-09-07T07:16:29;4.87;;;3.47;;
1366;SDS011;16877;48.810;9.282;2023-09-07T07:18:56;4.00;;;3.43;;
1366;SDS011;16877;48.810;9.282;2023-09-07T07:21:25;4.10;;;3.53;;
1366;SDS011;16877;48.810;9.282;2023-09-07T07:23:53;4.20;;;3.50;;
1366;SDS011;16877;48.810;9.282;2023-09-07T07:26:23;4.77;;;4.17;;
1366;SDS011;16877;48.810;9.282;2023-09-07T07:28:53;4.57;;;3.53;;
1366;SDS011;16877;48.810;9.282;2023-09-07T07:31:20;5.90;;;3.97;;
1366;SDS011;16877;48.810;9.282;2023-09-07T07:33:48;4.60;;;3.97;;
1366;SDS011;16877;48.810;9.282;2023-09-07T07:36:16;4.00;;;3.43;;
1366;SDS011;16877;48.810;9.282;2023-09-07T07:38:44;4.70;;;3.90;;
1366;SDS011;16877;48.810;9.282;2023-09-07T07:41:12;6.07;;;4.37;;
1366;SDS011;16877;48.810;9.282;2023-09-07T07:43:40;4.10;;;3.60;;
1366;SDS011;16877;48.810;9.282;2023-09-07T07:46:09;4.60;;;3.90;;
1366;SDS011;16877;48.810;9.282;2023-09-07T07:48:40;4.53;;;3.97;;
1366;SDS011;16877;48.810;9.282;2023-09-07T07:51:08;4.90;;;4.00;;
1366;SDS011;16877;48.810;9.282;2023-09-07T07:53:35;4.50;;;4.10;;
1366;SDS011;16877;48.810;9.282;2023-09-07T07:56:18;5.87;;;3.13;;
1366;SDS011;16877;48.810;9.282;2023-09-07T07:58:45;4.10;;;3.43;;
1366;SDS011;16877;48.810;9.282;2023-09-07T08:01:29;4.37;;;3.83;;
1366;SDS011;16877;48.810;9.282;2023-09-07T08:03:57;4.50;;;3.23;;
1366;SDS011;16877;48.810;9.282;2023-09-07T08:06:24;6.87;;;4.10;;
1366;SDS011;16877;48.810;9.282;2023-09-07T08:09:06;4.70;;;4.20;;
1366;SDS011;16877;48.810;9.282;2023-09-07T08:11:35;5.73;;;4.80;;
1366;SDS011;16877;48.810;9.282;2023-09-07T08:14:03;7.13;;;3.93;;
1366;SDS011;16877;48.810;9.282;2023-09-07T08:16:33;4.50;;;4.00;;
1366;SDS011;16877;48.810;9.282;2023-09-07T08:19:16;6.63;;;4.60;;
1366;SDS011;16877;48.810;9.282;2023-09-07T08:21:44;4.67;;;4.27;;
1366;SDS011;16877;48.810;9.282;2023-09-07T08:24:12;5.23;;;4.73;;
1366;SDS011;16877;48.810;9.282;2023-09-07T08:26:41;6.37;;;4.40;;
1366;SDS011;16877;48.810;9.282;2023-09-07T08:29:09;4.53;;;3.93;;
1366;SDS011;16877;48.810;9.282;2023-09-07T08:31:41;4.90;;;4.40;;
1366;SDS011;16877;48.810;9.282;2023-09-07T08:34:20;5.70;;;4.27;;
1366;SDS011;16877;48.810;9.282;2023-09-07T08:36:48;4.87;;;4.47;;
1366;SDS011;16877;48.810;9.282;2023-09-07T08:39:20;4.70;;;4.30;;
1366;SDS011;16877;48.810;9.282;2023-09-07T08:41:52;4.77;;;4.13;;
1366;SDS011;16877;48.810;9.282;2023-09-07T08:44:30;5.27;;;4.40;;
1366;SDS011;16877;48.810;9.282;2023-09-07T08:47:03;4.80;;;4.40;;
1366;SDS011;16877;48.810;9.282;2023-09-07T08:49:32;4.43;;;4.03;;
1366;SDS011;16877;48.810;9.282;2023-09-07T08:52:02;5.17;;;4.40;;
1366;SDS011;16877;48.810;9.282;2023-09-07T08:54:32;5.40;;;3.90;;
1366;SDS011;16877;48.810;9.282;2023-09-07T08:57:01;4.97;;;4.47;;
1366;SDS011;16877;48.810;9.282;2023-09-07T08:59:30;5.73;;;5.20;;
1366;SDS011;16877;48.810;9.282;2023-09-07T09:01:58;5.83;;;5.10;;
1366;SDS011;16877;48.810;9.282;2023-09-07T09:04:27;6.00;;;4.20;;
1366;SDS011;16877;48.810;9.282;2023-09-07T09:06:55;4.80;;;4.20;;
1366;SDS011;16877;48.810;9.282;2023-09-07T09:09:23;5.43;;;4.93;;
1366;SDS011;16877;48.810;9.282;2023-09-07T09:12:05;5.03;;;4.53;;
1366;SDS011;16877;48.810;9.282;2023-09-07T09:14:33;5.77;;;5.00;;
1366;SDS011;16877;48.810;9.282;2023-09-07T09:17:00;5.10;;;4.40;;
1366;SDS011;16877;48.810;9.282;2023-09-07T09:19:33;5.30;;;4.80;;
1366;SDS011;16877;48.810;9.282;2023-09-07T09:22:01;7.37;;;5.87;;
1366;SDS011;16877;48.810;9.282;2023-09-07T09:24:31;6.30;;;5.13;;
1366;SDS011;16877;48.810;9.282;2023-09-07T09:27:05;4.80;;;4.40;;
1366;SDS011;16877;48.810;9.282;2023-09-07T09:29:32;5.03;;;4.63;;
1366;SDS011;16877;48.810;9.282;2023-09-07T09:32:13;6.50;;;4.33;;
1366;SDS011;16877;48.810;9.282;2023-09-07T09:34:43;5.60;;;4.60;;
1366;SDS011;16877;48.810;9.282;2023-09-07T09:37:26;5.03;;;4.53;;
1366;SDS011;16877;48.810;9.282;2023-09-07T09:39:54;4.70;;;4.20;;
1366;SDS011;16877;48.810;9.282;2023-09-07T09:42:24;5.67;;;4.80;;
1366;SDS011;16877;48.810;9.282;2023-09-07T09:44:52;5.10;;;4.60;;
1366;SDS011;16877;48.810;9.282;2023-09-07T09:47:36;6.50;;;5.40;;
1366;SDS011;16877;48.810;9.282;2023-09-07T09:50:09;7.17;;;5.50;;
1366;SDS011;16877;48.810;9.282;2023-09-07T09:52:38;4.87;;;4.47;;
1366;SDS011;16877;48.810;9.282;2023-09-07T09:55:06;4.70;;;4.30;;
1366;SDS011;16877;48.810;9.282;2023-09-07T09:57:38;6.20;;;4.90;;
1366;SDS011;16877;48.810;9.282;2023-09-07T10:00:05;6.73;;;5.30;;
1366;SDS011;16877;48.810;9.282;2023-09-07T10:02:51;5.70;;;5.13;;
1366;SDS011;16877;48.810;9.282;2023-09-07T10:05:27;4.70;;;4.20;;
1366;SDS011;16877;48.810;9.282;2023-09-07T10:07:59;5.70;;;4.60;;
1366;SDS011;16877;48.810;9.282;2023-09-07T10:10:31;4.77;;;4.37;;
1366;SDS011;16877;48.810;9.282;2023-09-07T10:13:02;5.03;;;4.47;;
1366;SDS011;16877;48.810;9.282;2023-09-07T10:15:30;4.90;;;4.50;;
1366;SDS011;16877;48.810;9.282;2023-09-07T10:18:09;6.13;;;5.27;;
1366;SDS011;16877;48.810;9.282;2023-09-07T10:20:49;5.40;;;4.90;;
1366;SDS011;16877;48.810;9.282;2023-09-07T10:23:17;5.10;;;4.60;;
1366;SDS011;16877;48.810;9.282;2023-09-07T10:25:59;4.93;;;4.40;;
1366;SDS011;16877;48.810;9.282;2023-09-07T10:28:29;5.40;;;4.90;;
1366;SDS011;16877;48.810;9.282;2023-09-07T10:30:59;4.83;;;4.33;;
1366;SDS011;16877;48.810;9.282;2023-09-07T10:33:31;5.90;;;5.30;;
1366;SDS011;16877;48.810;9.282;2023-09-07T10:36:21;4.97;;;4.40;;
1366;SDS011;16877;48.810;9.282;2023-09-07T10:38:50;4.60;;;4.13;;
1366;SDS011;16877;48.810;9.282;2023-09-07T10:41:18;5.10;;;4.60;;
1366;SDS011;16877;48.810;9.282;2023-09-07T10:43:48;4.60;;;4.20;;
1366;SDS011;16877;48.810;9.282;2023-09-07T10:46:18;5.23;;;4.73;;
1366;SDS011;16877;48.810;9.282;2023-09-07T10:48:48;7.97;;;4.80;;
1366;SDS011;16877;48.810;9.282;2023-09-07T10:51:17;6.17;;;4.37;;
1366;SDS011;16877;48.810;9.282;2023-09-07T10:53:46;5.10;;;4.60;;
1366;SDS011;16877;48.810;9.282;2023-09-07T10:56:15;5.03;;;4.30;;
1366;SDS011;16877;48.810;9.282;2023-09-07T10:58:43;5.30;;;4.50;;
1366;SDS011;16877;48.810;9.282;2023-09-07T11:01:10;4.70;;;3.93;;
1366;SDS011;16877;48.810;9.282;2023-09-07T11:03:38;5.10;;;4.60;;
1366;SDS011;16877;48.810;9.282;2023-09-07T11:06:06;4.50;;;4.10;;
1366;SDS011;16877;48.810;9.282;2023-09-07T11:08:36;4.80;;;4.40;;
1366;SDS011;16877;48.810;9.282;2023-09-07T11:11:05;5.03;;;4.63;;
1366;SDS011;16877;48.810;9.282;2023-09-07T11:13:35;4.90;;;4.50;;
1366;SDS011;16877;48.810;9.282;2023-09-07T11:16:02;4.70;;;4.30;;
1366;SDS011;16877;48.810;9.282;2023-09-07T11:18:29;4.97;;;4.47;;
1366;SDS011;16877;48.810;9.282;2023-09-07T11:20:57;6.43;;;4.47;;
1366;SDS011;16877;48.810;9.282;2023-09-07T11:23:25;4.55;;;3.90;;
1366;SDS011;16877;48.810;9.282;2023-09-07T11:25:52;4.47;;;4.07;;
1366;SDS011;16877;48.810;9.282;2023-09-07T11:28:21;4.43;;;4.03;;
1366;SDS011;16877;48.810;9.282;2023-09-07T11:30:50;6.72;;;4.53;;
1366;SDS011;16877;48.810;9.282;2023-09-07T11:33:17;4.78;;;4.38;;
1366;SDS011;16877;48.810;9.282;2023-09-07T11:35:44;4.43;;;4.00;;
1366;SDS011;16877;48.810;9.282;2023-09-07T11:38:12;5.60;;;5.00;;
1366;SDS011;16877;48.810;9.282;2023-09-07T11:40:41;4.40;;;4.00;;
1366;SDS011;16877;48.810;9.282;2023-09-07T11:43:09;4.35;;;3.95;;
1366;SDS011;16877;48.810;9.282;2023-09-07T11:45:39;4.57;;;4.18;;
1366;SDS011;16877;48.810;9.282;2023-09-07T11:48:06;4.30;;;3.90;;
1366;SDS011;16877;48.810;9.282;2023-09-07T11:50:35;5.07;;;4.43;;
1366;SDS011;16877;48.810;9.282;2023-09-07T11:53:03;5.63;;;4.40;;
1366;SDS011;16877;48.810;9.282;2023-09-07T11:55:30;4.85;;;4.00;;
1366;SDS011;16877;48.810;9.282;2023-09-07T11:57:57;4.15;;;3.75;;
1366;SDS011;16877;48.810;9.282;2023-09-07T12:00:25;4.40;;;4.00;;
1366;SDS011;16877;48.810;9.282;2023-09-07T12:03:09;5.03;;;3.75;;
1366;SDS011;16877;48.810;9.282;2023-09-07T12:05:37;5.22;;;3.70;;
1366;SDS011;16877;48.810;9.282;2023-09-07T12:08:06;4.78;;;4.18;;
1366;SDS011;16877;48.810;9.282;2023-09-07T12:10:34;4.40;;;4.00;;
1366;SDS011;16877;48.810;9.282;2023-09-07T12:13:01;4.18;;;3.67;;
1366;SDS011;16877;48.810;9.282;2023-09-07T12:15:28;4.93;;;3.88;;
1366;SDS011;16877;48.810;9.282;2023-09-07T12:17:56;4.50;;;3.63;;
1366;SDS011;16877;48.810;9.282;2023-09-07T12:20:25;3.92;;;3.53;;
1366;SDS011;16877;48.810;9.282;2023-09-07T12:22:53;4.22;;;3.83;;
1366;SDS011;16877;48.810;9.282;2023-09-07T12:25:21;4.32;;;3.85;;
1366;SDS011;16877;48.810;9.282;2023-09-07T12:27:48;5.07;;;3.97;;
1366;SDS011;16877;48.810;9.282;2023-09-07T12:30:17;4.22;;;3.83;;
1366;SDS011;16877;48.810;9.282;2023-09-07T12:32:45;4.40;;;4.00;;
1366;SDS011;16877;48.810;9.282;2023-09-07T12:35:12;4.65;;;3.70;;
1366;SDS011;16877;48.810;9.282;2023-09-07T12:37:41;3.97;;;3.58;;
1366;SDS011;16877;48.810;9.282;2023-09-07T12:40:09;4.05;;;3.20;;
1366;SDS011;16877;48.810;9.282;2023-09-07T12:42:40;4.93;;;3.92;;
1366;SDS011;16877;48.810;9.282;2023-09-07T12:45:12;4.60;;;4.10;;
1366;SDS011;16877;48.810;9.282;2023-09-07T12:47:40;4.68;;;4.18;;
1366;SDS011;16877;48.810;9.282;2023-09-07T12:50:07;4.03;;;3.67;;
1366;SDS011;16877;48.810;9.282;2023-09-07T12:52:36;4.13;;;3.72;;
1366;SDS011;16877;48.810;9.282;2023-09-07T12:55:06;3.95;;;3.55;;
1366;SDS011;16877;48.810;9.282;2023-09-07T12:57:33;4.25;;;3.85;;
1366;SDS011;16877;48.810;9.282;2023-09-07T13:00:01;4.00;;;3.60;;
1366;SDS011;16877;48.810;9.282;2023-09-07T13:02:31;3.97;;;3.40;;
1366;SDS011;16877;48.810;9.282;2023-09-07T13:04:58;6.20;;;3.63;;
1366;SDS011;16877;48.810;9.282;2023-09-07T13:07:26;3.97;;;3.53;;
1366;SDS011;16877;48.810;9.282;2023-09-07T13:09:53;3.70;;;3.33;;
1366;SDS011;16877;48.810;9.282;2023-09-07T13:12:22;5.85;;;3.80;;
1366;SDS011;16877;48.810;9.282;2023-09-07T13:14:50;4.45;;;3.67;;
1366;SDS011;16877;48.810;9.282;2023-09-07T13:17:19;4.15;;;3.75;;
1366;SDS011;16877;48.810;9.282;2023-09-07T13:19:57;4.88;;;3.50;;
1366;SDS011;16877;48.810;9.282;2023-09-07T13:22:39;4.68;;;4.25;;
1366;SDS011;16877;48.810;9.282;2023-09-07T13:25:22;4.32;;;3.92;;
1366;SDS011;16877;48.810;9.282;2023-09-07T13:27:52;4.45;;;4.05;;
1366;SDS011;16877;48.810;9.282;2023-09-07T13:30:34;4.43;;;4.03;;
1366;SDS011;16877;48.810;9.282;2023-09-07T13:33:16;3.95;;;3.55;;
1366;SDS011;16877;48.810;9.282;2023-09-07T13:36:03;5.57;;;3.53;;
1366;SDS011;16877;48.810;9.282;2023-09-07T13:38:32;3.42;;;3.13;;
1366;SDS011;16877;48.810;9.282;2023-09-07T13:41:19;3.85;;;3.25;;
1366;SDS011;16877;48.810;9.282;2023-09-07T13:44:03;3.95;;;3.53;;
1366;SDS011;16877;48.810;9.282;2023-09-07T13:46:49;4.85;;;3.85;;
1366;SDS011;16877;48.810;9.282;2023-09-07T13:49:32;4.35;;;3.95;;
1366;SDS011;16877;48.810;9.282;2023-09-07T13:52:14;4.13;;;3.47;;
1366;SDS011;16877;48.810;9.282;2023-09-07T13:54:56;3.60;;;3.30;;
1366;SDS011;16877;48.810;9.282;2023-09-07T13:57:39;4.20;;;3.45;;
1366;SDS011;16877;48.810;9.282;2023-09-07T14:03:22;3.97;;;3.45;;
1366;SDS011;16877;48.810;9.282;2023-09-07T14:06:04;5.28;;;3.60;;
1366;SDS011;16877;48.810;9.282;2023-09-07T14:08:46;3.83;;;3.42;;
1366;SDS011;16877;48.810;9.282;2023-09-07T14:11:29;3.97;;;3.58;;
1366;SDS011;16877;48.810;9.282;2023-09-07T14:14:15;4.13;;;3.53;;
1366;SDS011;16877;48.810;9.282;2023-09-07T14:16:59;5.75;;;4.00;;
1366;SDS011;16877;48.810;9.282;2023-09-07T14:19:42;3.83;;;3.47;;
1366;SDS011;16877;48.810;9.282;2023-09-07T14:22:10;3.72;;;3.42;;
1366;SDS011;16877;48.810;9.282;2023-09-07T14:25:11;3.45;;;3.15;;
1366;SDS011;16877;48.810;9.282;2023-09-07T14:27:41;3.67;;;3.38;;
1366;SDS011;16877;48.810;9.282;2023-09-07T14:30:24;3.50;;;3.05;;
1366;SDS011;16877;48.810;9.282;2023-09-07T14:32:54;3.33;;;3.03;;
1366;SDS011;16877;48.810;9.282;2023-09-07T14:35:37;4.20;;;3.50;;
1366;SDS011;16877;48.810;9.282;2023-09-07T14:38:07;3.50;;;3.08;;
1366;SDS011;16877;48.810;9.282;2023-09-07T14:40:34;4.20;;;3.80;;
1366;SDS011;16877;48.810;9.282;2023-09-07T14:43:03;4.30;;;3.45;;
1366;SDS011;16877;48.810;9.282;2023-09-07T14:45:32;4.53;;;4.03;;
1366;SDS011;16877;48.810;9.282;2023-09-07T14:48:17;3.38;;;2.95;;
1366;SDS011;16877;48.810;9.282;2023-09-07T14:50:45;4.03;;;3.63;;
1366;SDS011;16877;48.810;9.282;2023-09-07T14:53:12;3.60;;;3.30;;
1366;SDS011;16877;48.810;9.282;2023-09-07T14:55:40;4.50;;;3.60;;
1366;SDS011;16877;48.810;9.282;2023-09-07T14:58:08;5.05;;;3.63;;
1366;SDS011;16877;48.810;9.282;2023-09-07T15:00:35;4.63;;;4.20;;
1366;SDS011;16877;48.810;9.282;2023-09-07T15:03:04;4.30;;;3.47;;
1366;SDS011;16877;48.810;9.282;2023-09-07T15:05:33;4.63;;;3.92;;
1366;SDS011;16877;48.810;9.282;2023-09-07T15:08:00;3.70;;;3.30;;
1366;SDS011;16877;48.810;9.282;2023-09-07T15:10:29;4.15;;;3.08;;
1366;SDS011;16877;48.810;9.282;2023-09-07T15:12:59;4.95;;;3.80;;
1366;SDS011;16877;48.810;9.282;2023-09-07T15:15:27;4.00;;;3.53;;
1366;SDS011;16877;48.810;9.282;2023-09-07T15:17:58;4.15;;;3.75;;
1366;SDS011;16877;48.810;9.282;2023-09-07T15:20:32;4.18;;;3.60;;
1366;SDS011;16877;48.810;9.282;2023-09-07T15:23:00;4.30;;;3.90;;